createdAt,value
2019-06-27T00:02:09.111Z,100.00
2019-06-27T00:04:39.069Z,100.00
2019-06-27T00:07:09.377Z,100.00
2019-06-27T00:09:39.325Z,100.00
2019-06-27T00:12:09.365Z,100.00
2019-06-27T00:14:39.333Z,100.00
2019-06-27T00:17:09.308Z,100.00
2019-06-27T00:19:39.239Z,100.00
2019-06-27T00:22:09.255Z,100.00
2019-06-27T00:24:39.189Z,100.00
2019-06-27T00:27:09.151Z,100.00
2019-06-27T00:29:39.099Z,100.00
2019-06-27T00:32:09.392Z,100.00
2019-06-27T00:34:39.323Z,100.00
2019-06-27T00:37:09.317Z,100.00
2019-06-27T00:39:39.249Z,100.00
2019-06-27T00:42:09.289Z,100.00
2019-06-27T00:44:39.255Z,100.00
2019-06-27T00:47:09.559Z,100.00
2019-06-27T00:49:39.643Z,100.00
2019-06-27T00:52:09.929Z,100.00
2019-06-27T00:54:39.878Z,100.00
2019-06-27T00:57:14.359Z,100.00
2019-06-27T00:59:41.653Z,100.00
2019-06-27T01:02:11.694Z,100.00
2019-06-27T01:04:41.649Z,100.00
2019-06-27T01:07:11.667Z,100.00
2019-06-27T01:09:41.906Z,100.00
2019-06-27T01:12:11.967Z,100.00
2019-06-27T01:14:42.031Z,100.00
2019-06-27T01:17:12.146Z,100.00
2019-06-27T01:19:42.085Z,100.00
2019-06-27T01:22:12.095Z,100.00
2019-06-27T01:24:42.436Z,100.00
2019-06-27T01:27:28.843Z,100.00
2019-06-27T01:29:44.560Z,100.00
2019-06-27T01:32:14.516Z,100.00
2019-06-27T01:34:44.467Z,100.00
2019-06-27T01:37:15.269Z,100.00
2019-06-27T01:39:45.438Z,100.00
2019-06-27T01:42:15.596Z,100.00
2019-06-27T01:44:50.324Z,100.00
2019-06-27T01:47:20.423Z,100.00
2019-06-27T01:49:50.372Z,100.00
2019-06-27T01:52:20.357Z,100.00
2019-06-27T01:54:50.293Z,100.00
2019-06-27T01:57:20.391Z,100.00
2019-06-27T01:59:50.398Z,100.00
2019-06-27T02:02:21.017Z,100.00
2019-06-27T02:04:51.174Z,100.00
2019-06-27T02:07:21.253Z,100.00
2019-06-27T02:09:51.235Z,100.00
2019-06-27T02:12:21.185Z,100.00
2019-06-27T02:14:51.091Z,100.00
2019-06-27T02:17:21.170Z,100.00
2019-06-27T02:19:51.064Z,100.00
2019-06-27T02:22:21.005Z,100.00
2019-06-27T02:24:51.111Z,100.00
2019-06-27T02:27:21.048Z,100.00
2019-06-27T02:29:50.939Z,100.00
2019-06-27T02:32:20.873Z,100.00
2019-06-27T02:34:51.049Z,100.00
2019-06-27T02:37:20.973Z,100.00
2019-06-27T02:39:51.285Z,100.00
2019-06-27T02:42:21.293Z,100.00
2019-06-27T02:44:51.421Z,100.00
2019-06-27T02:47:21.725Z,100.00
2019-06-27T02:49:51.634Z,100.00
2019-06-27T02:52:21.658Z,100.00
2019-06-27T02:54:51.561Z,100.00
2019-06-27T02:57:21.752Z,100.00
2019-06-27T02:59:51.755Z,100.00
2019-06-27T03:02:21.770Z,100.00
2019-06-27T03:04:52.220Z,100.00
2019-06-27T03:07:22.332Z,100.00
2019-06-27T03:09:52.308Z,100.00
2019-06-27T03:12:22.396Z,100.00
2019-06-27T03:14:52.608Z,100.00
2019-06-27T03:17:22.612Z,100.00
2019-06-27T03:19:52.606Z,100.00
2019-06-27T03:22:22.518Z,100.00
2019-06-27T03:24:52.458Z,100.00
2019-06-27T03:27:22.352Z,100.00
2019-06-27T03:29:52.276Z,100.00
2019-06-27T03:32:22.491Z,100.00
2019-06-27T03:34:52.494Z,100.00
2019-06-27T03:37:22.399Z,100.00
2019-06-27T03:39:52.417Z,100.00
2019-06-27T03:42:22.319Z,100.00
2019-06-27T03:45:03.152Z,100.00
2019-06-27T03:47:33.088Z,100.00
2019-06-27T03:50:03.096Z,100.00
2019-06-27T03:52:33.215Z,100.00
2019-06-27T03:55:03.214Z,100.00
2019-06-27T03:57:33.177Z,100.00
2019-06-27T04:00:03.642Z,100.00
2019-06-27T04:02:33.714Z,100.00
2019-06-27T04:05:03.832Z,100.00
2019-06-27T04:07:33.814Z,100.00
2019-06-27T04:10:04.130Z,100.00
2019-06-27T04:12:34.264Z,100.00
2019-06-27T04:15:04.319Z,100.00
2019-06-27T04:17:34.189Z,100.00
2019-06-27T04:20:04.419Z,100.00
2019-06-27T04:22:34.344Z,100.00
2019-06-27T04:25:04.467Z,99.68
2019-06-27T04:27:34.361Z,97.11
2019-06-27T04:30:04.395Z,95.81
2019-06-27T04:32:34.309Z,95.41
2019-06-27T04:35:04.548Z,93.57
2019-06-27T04:37:34.524Z,90.33
2019-06-27T04:40:04.942Z,89.54
2019-06-27T04:42:34.912Z,89.32
2019-06-27T04:45:05.466Z,85.52
2019-06-27T04:47:35.347Z,83.04
2019-06-27T04:50:05.652Z,81.70
2019-06-27T04:52:35.566Z,79.50
2019-06-27T04:55:05.739Z,77.00
2019-06-27T04:57:35.678Z,74.49
2019-06-27T05:00:06.251Z,71.82
2019-06-27T05:02:36.384Z,68.29
2019-06-27T05:05:06.598Z,67.34
2019-06-27T05:07:36.579Z,63.21
2019-06-27T05:10:06.970Z,61.67
2019-06-27T05:12:36.858Z,61.71
2019-06-27T05:15:07.444Z,61.13
2019-06-27T05:17:37.400Z,59.86
2019-06-27T05:20:07.688Z,60.04
2019-06-27T05:22:37.767Z,60.69
2019-06-27T05:25:07.810Z,58.60
2019-06-27T05:27:37.894Z,59.06
2019-06-27T05:30:10.309Z,58.62
2019-06-27T05:32:40.166Z,58.64
2019-06-27T05:35:10.794Z,60.95
2019-06-27T05:37:41.455Z,58.10
2019-06-27T05:40:11.487Z,55.48
2019-06-27T05:42:41.457Z,55.12
2019-06-27T05:45:12.308Z,53.23
2019-06-27T05:47:42.293Z,53.11
2019-06-27T05:50:12.866Z,52.03
2019-06-27T05:52:42.815Z,51.46
2019-06-27T05:55:12.880Z,50.91
2019-06-27T05:57:43.060Z,50.86
2019-06-27T06:00:27.754Z,51.51
2019-06-27T06:02:45.768Z,50.42
2019-06-27T06:05:15.697Z,54.67
2019-06-27T06:07:45.676Z,57.87
2019-06-27T06:10:16.478Z,57.60
2019-06-27T06:12:46.418Z,57.89
2019-06-27T06:15:16.750Z,61.17
2019-06-27T06:17:46.758Z,60.54
2019-06-27T06:20:17.702Z,60.82
2019-06-27T06:22:47.626Z,59.45
2019-06-27T06:25:18.254Z,58.93
2019-06-27T06:27:48.394Z,59.43
2019-06-27T06:30:18.551Z,59.27
2019-06-27T06:32:48.581Z,60.25
2019-06-27T06:35:18.856Z,58.85
2019-06-27T06:37:49.279Z,57.44
2019-06-27T06:40:19.431Z,57.06
2019-06-27T06:42:49.426Z,57.24
2019-06-27T06:45:19.402Z,55.74
2019-06-27T06:47:49.718Z,53.73
2019-06-27T06:50:23.149Z,54.29
2019-06-27T06:52:51.531Z,56.50
2019-06-27T06:55:22.297Z,55.78
2019-06-27T06:57:52.212Z,55.55
2019-06-27T07:00:23.372Z,53.54
2019-06-27T07:02:53.523Z,52.96
2019-06-27T07:05:23.475Z,52.19
2019-06-27T07:07:53.437Z,51.57
2019-06-27T07:10:23.532Z,53.72
2019-06-27T07:12:53.433Z,53.02
2019-06-27T07:15:23.390Z,53.64
2019-06-27T07:17:53.416Z,52.57
2019-06-27T07:20:23.521Z,52.88
2019-06-27T07:22:53.428Z,50.88
2019-06-27T07:25:25.087Z,49.99
2019-06-27T07:27:55.036Z,49.55
2019-06-27T07:30:25.220Z,47.57
2019-06-27T07:32:55.606Z,49.00
2019-06-27T07:35:25.703Z,47.08
2019-06-27T07:37:56.398Z,47.91
2019-06-27T07:40:26.278Z,47.35
2019-06-27T07:42:56.990Z,45.76
2019-06-27T07:45:26.922Z,47.24
2019-06-27T07:47:56.856Z,45.95
2019-06-27T07:50:26.744Z,46.27
2019-06-27T07:52:56.675Z,45.93
2019-06-27T07:55:26.859Z,46.80
2019-06-27T07:57:57.283Z,47.33
2019-06-27T08:00:27.813Z,46.20
2019-06-27T08:02:57.707Z,44.57
2019-06-27T08:05:27.611Z,43.04
2019-06-27T08:07:57.767Z,45.65
2019-06-27T08:10:27.729Z,47.49
2019-06-27T08:12:57.698Z,49.98
2019-06-27T08:15:30.589Z,50.83
2019-06-27T08:18:00.521Z,50.15
2019-06-27T08:20:30.415Z,45.42
2019-06-27T08:23:01.497Z,47.16
2019-06-27T08:25:31.396Z,43.46
2019-06-27T08:28:01.338Z,41.52
2019-06-27T08:30:31.865Z,42.62
2019-06-27T08:33:02.630Z,44.95
2019-06-27T08:35:33.726Z,41.24
2019-06-27T08:38:03.616Z,39.80
2019-06-27T08:40:33.583Z,40.71
2019-06-27T08:43:03.564Z,42.60
2019-06-27T08:45:34.082Z,41.49
2019-06-27T08:48:03.997Z,39.96
2019-06-27T08:50:33.893Z,40.47
2019-06-27T08:53:04.011Z,42.25
2019-06-27T08:55:34.045Z,38.95
2019-06-27T08:58:03.940Z,37.32
2019-06-27T09:00:33.827Z,37.45
2019-06-27T09:03:03.806Z,36.48
2019-06-27T09:05:33.674Z,35.02
2019-06-27T09:08:03.945Z,36.89
2019-06-27T09:10:34.131Z,37.57
2019-06-27T09:13:04.037Z,39.04
2019-06-27T09:15:33.921Z,34.74
2019-06-27T09:18:04.090Z,34.29
2019-06-27T09:20:34.353Z,33.97
2019-06-27T09:23:04.577Z,33.26
2019-06-27T09:25:34.463Z,33.72
2019-06-27T09:28:05.081Z,31.69
2019-06-27T09:30:35.038Z,32.30
2019-06-27T09:33:05.030Z,32.58
2019-06-27T09:35:36.906Z,30.72
2019-06-27T09:38:07.060Z,30.71
2019-06-27T09:40:37.813Z,32.68
2019-06-27T09:43:07.981Z,37.41
2019-06-27T09:45:38.028Z,36.10
2019-06-27T09:48:08.332Z,32.42
2019-06-27T09:50:38.270Z,30.11
2019-06-27T09:53:08.348Z,31.51
2019-06-27T09:55:38.830Z,32.48
2019-06-27T09:58:09.053Z,31.33
2019-06-27T10:00:39.216Z,31.80
2019-06-27T10:03:09.240Z,31.63
2019-06-27T10:05:39.353Z,36.81
2019-06-27T10:08:09.368Z,34.88
2019-06-27T10:10:39.341Z,35.21
2019-06-27T10:13:09.255Z,32.31
2019-06-27T10:15:39.858Z,37.50
2019-06-27T10:18:09.878Z,33.12
2019-06-27T10:20:39.756Z,33.82
2019-06-27T10:23:09.774Z,32.82
2019-06-27T10:25:39.652Z,32.18
2019-06-27T10:28:10.222Z,29.44
2019-06-27T10:30:40.128Z,27.81
2019-06-27T10:33:10.057Z,27.61
2019-06-27T10:35:40.207Z,29.81
2019-06-27T10:38:10.101Z,32.25
2019-06-27T10:40:40.067Z,30.74
2019-06-27T10:43:09.958Z,30.26
2019-06-27T10:45:39.839Z,30.25
2019-06-27T10:48:09.749Z,29.86
2019-06-27T10:50:40.263Z,29.06
2019-06-27T10:53:10.470Z,28.21
2019-06-27T10:55:40.391Z,27.74
2019-06-27T10:58:10.375Z,27.58
2019-06-27T11:00:40.251Z,28.14
2019-06-27T11:03:15.339Z,27.84
2019-06-27T11:05:41.885Z,29.07
2019-06-27T11:08:11.879Z,27.84
2019-06-27T11:10:41.857Z,26.64
2019-06-27T11:13:11.764Z,26.43
2019-06-27T11:15:41.696Z,26.28
2019-06-27T11:18:11.628Z,25.27
2019-06-27T11:20:41.537Z,26.21
2019-06-27T11:23:12.268Z,25.00
2019-06-27T11:25:42.172Z,27.09
2019-06-27T11:28:12.190Z,31.16
2019-06-27T11:30:42.531Z,31.88
2019-06-27T11:33:12.755Z,29.42
2019-06-27T11:35:42.688Z,28.38
2019-06-27T11:38:12.690Z,27.87
2019-06-27T11:40:42.635Z,25.85
2019-06-27T11:43:12.590Z,24.35
2019-06-27T11:45:42.718Z,29.32
2019-06-27T11:48:12.637Z,26.75
2019-06-27T11:50:43.201Z,27.16
2019-06-27T11:53:13.127Z,26.88
2019-06-27T11:55:43.070Z,31.34
2019-06-27T11:58:12.948Z,30.44
2019-06-27T12:00:43.720Z,31.74
2019-06-27T12:03:14.586Z,29.11
2019-06-27T12:05:44.589Z,26.62
2019-06-27T12:08:14.463Z,26.27
2019-06-27T12:10:44.630Z,24.89
2019-06-27T12:13:14.498Z,24.34
2019-06-27T12:15:44.431Z,21.83
2019-06-27T12:18:14.609Z,23.33
2019-06-27T12:20:44.595Z,22.67
2019-06-27T12:23:14.476Z,21.96
2019-06-27T12:25:44.384Z,21.85
2019-06-27T12:28:14.432Z,24.87
2019-06-27T12:30:44.480Z,25.12
2019-06-27T12:33:14.663Z,23.91
2019-06-27T12:35:44.576Z,23.39
2019-06-27T12:38:14.536Z,25.11
2019-06-27T12:40:44.532Z,23.69
2019-06-27T12:43:14.735Z,23.69
2019-06-27T12:45:44.664Z,22.09
2019-06-27T12:48:14.554Z,24.16
2019-06-27T12:50:45.291Z,22.96
2019-06-27T12:53:15.168Z,24.35
2019-06-27T12:55:45.109Z,23.71
2019-06-27T12:58:15.349Z,24.46
2019-06-27T13:00:45.242Z,26.89
2019-06-27T13:03:15.120Z,26.81
2019-06-27T13:05:45.567Z,25.83
2019-06-27T13:08:15.551Z,24.64
2019-06-27T13:10:45.442Z,24.71
2019-06-27T13:13:15.367Z,27.40
2019-06-27T13:15:46.025Z,27.23
2019-06-27T13:18:16.397Z,31.55
2019-06-27T13:20:57.397Z,28.64
2019-06-27T13:23:18.392Z,26.48
2019-06-27T13:25:48.776Z,26.57
2019-06-27T13:28:18.866Z,28.27
2019-06-27T13:30:48.824Z,28.39
2019-06-27T13:33:18.932Z,26.54
2019-06-27T13:35:49.214Z,27.28
2019-06-27T13:38:19.324Z,25.89
2019-06-27T13:40:49.276Z,24.56
2019-06-27T13:43:19.188Z,24.08
2019-06-27T13:45:49.886Z,25.24
2019-06-27T13:48:19.836Z,29.30
2019-06-27T13:50:49.862Z,29.12
2019-06-27T13:53:19.909Z,29.49
2019-06-27T13:55:49.820Z,32.24
2019-06-27T13:58:20.363Z,32.40
2019-06-27T14:00:50.417Z,34.31
2019-06-27T14:03:20.272Z,31.71
2019-06-27T14:05:50.973Z,29.20
2019-06-27T14:08:21.594Z,28.18
2019-06-27T14:10:51.634Z,28.60
2019-06-27T14:13:21.541Z,28.88
2019-06-27T14:15:51.604Z,29.54
2019-06-27T14:18:21.485Z,31.91
2019-06-27T14:20:52.009Z,33.35
2019-06-27T14:23:21.938Z,31.40
2019-06-27T14:25:51.875Z,30.86
2019-06-27T14:28:22.009Z,28.84
2019-06-27T14:30:51.910Z,29.27
2019-06-27T14:33:23.607Z,30.83
2019-06-27T14:35:55.237Z,29.39
2019-06-27T14:38:25.236Z,30.62
2019-06-27T14:40:55.139Z,29.81
2019-06-27T14:43:25.019Z,29.93
2019-06-27T14:45:55.241Z,31.57
2019-06-27T14:48:25.141Z,32.11
2019-06-27T14:50:55.069Z,31.44
2019-06-27T14:53:24.974Z,31.85
2019-06-27T14:55:54.907Z,32.05
2019-06-27T14:58:25.072Z,36.06
2019-06-27T15:00:55.098Z,35.66
2019-06-27T15:03:25.442Z,35.57
2019-06-27T15:05:55.472Z,35.52
2019-06-27T15:08:25.360Z,38.19
2019-06-27T15:10:55.276Z,38.22
2019-06-27T15:13:25.616Z,40.47
2019-06-27T15:16:10.768Z,40.58
2019-06-27T15:18:27.425Z,38.62
2019-06-27T15:20:57.496Z,37.73
2019-06-27T15:23:29.199Z,40.39
2019-06-27T15:25:59.170Z,39.88
2019-06-27T15:28:29.044Z,41.19
2019-06-27T15:30:58.973Z,41.51
2019-06-27T15:33:28.850Z,41.73
2019-06-27T15:35:59.345Z,38.65
2019-06-27T15:38:29.237Z,39.18
2019-06-27T15:40:59.388Z,39.82
2019-06-27T15:43:29.278Z,40.10
2019-06-27T15:45:59.439Z,40.60
2019-06-27T15:48:29.436Z,43.47
2019-06-27T15:50:59.356Z,47.04
2019-06-27T15:53:29.255Z,43.84
2019-06-27T15:55:59.293Z,45.14
2019-06-27T15:58:33.758Z,44.88
2019-06-27T16:01:03.713Z,43.79
2019-06-27T16:03:33.578Z,43.49
2019-06-27T16:06:09.446Z,42.21
2019-06-27T16:08:35.191Z,45.61
2019-06-27T16:11:05.199Z,46.09
2019-06-27T16:13:35.116Z,45.77
2019-06-27T16:16:05.107Z,47.15
2019-06-27T16:18:34.979Z,45.09
2019-06-27T16:21:05.043Z,42.46
2019-06-27T16:23:34.949Z,43.51
2019-06-27T16:26:05.117Z,43.36
2019-06-27T16:28:35.086Z,44.34
2019-06-27T16:31:05.346Z,43.46
2019-06-27T16:33:35.337Z,42.94
2019-06-27T16:36:05.341Z,42.88
2019-06-27T16:38:35.294Z,43.14
2019-06-27T16:41:05.220Z,44.58
2019-06-27T16:43:35.580Z,45.88
2019-06-27T16:46:05.638Z,42.93
2019-06-27T16:48:35.510Z,43.06
2019-06-27T16:51:05.555Z,44.77
2019-06-27T16:53:35.444Z,45.45
2019-06-27T16:56:05.462Z,43.92
2019-06-27T16:58:35.386Z,42.62
2019-06-27T17:01:05.380Z,43.49
2019-06-27T17:03:35.373Z,44.27
2019-06-27T17:06:05.631Z,41.14
2019-06-27T17:08:35.593Z,42.34
2019-06-27T17:11:05.659Z,42.21
2019-06-27T17:13:35.538Z,41.27
2019-06-27T17:16:05.529Z,41.31
2019-06-27T17:18:35.463Z,39.67
2019-06-27T17:21:05.454Z,40.32
2019-06-27T17:23:36.114Z,40.34
2019-06-27T17:26:11.347Z,40.77
2019-06-27T17:28:37.859Z,41.08
2019-06-27T17:31:07.812Z,41.38
2019-06-27T17:33:37.680Z,41.08
2019-06-27T17:36:07.582Z,41.04
2019-06-27T17:38:37.488Z,40.50
2019-06-27T17:41:07.488Z,40.00
2019-06-27T17:43:37.365Z,40.73
2019-06-27T17:46:07.270Z,40.91
2019-06-27T17:48:37.212Z,39.81
2019-06-27T17:51:08.112Z,38.84
2019-06-27T17:53:38.165Z,38.95
2019-06-27T17:56:08.100Z,38.06
2019-06-27T17:58:37.983Z,38.47
2019-06-27T18:01:07.927Z,38.22
2019-06-27T18:03:38.106Z,37.82
2019-06-27T18:06:07.962Z,38.29
2019-06-27T18:08:41.280Z,38.38
2019-06-27T18:11:11.188Z,38.80
2019-06-27T18:13:41.171Z,38.66
2019-06-27T18:16:11.113Z,37.68
2019-06-27T18:18:41.118Z,37.88
2019-06-27T18:21:11.033Z,38.50
2019-06-27T18:23:40.931Z,38.07
2019-06-27T18:26:10.882Z,38.55
2019-06-27T18:28:40.778Z,38.63
2019-06-27T18:31:10.672Z,38.57
2019-06-27T18:33:40.832Z,38.49
2019-06-27T18:36:10.732Z,38.94
2019-06-27T18:38:40.618Z,39.22
2019-06-27T18:41:12.841Z,39.42
2019-06-27T18:43:42.345Z,39.23
2019-06-27T18:46:12.237Z,39.40
2019-06-27T18:48:42.213Z,40.14
2019-06-27T18:51:12.152Z,39.76
2019-06-27T18:53:42.066Z,40.53
2019-06-27T18:56:12.191Z,41.17
2019-06-27T18:58:42.167Z,41.28
2019-06-27T19:01:12.039Z,42.12
2019-06-27T19:03:41.953Z,42.89
2019-06-27T19:06:12.209Z,43.16
2019-06-27T19:08:42.241Z,43.14
2019-06-27T19:11:12.102Z,42.64
2019-06-27T19:13:42.026Z,43.35
2019-06-27T19:16:12.172Z,44.22
2019-06-27T19:18:46.137Z,45.03
2019-06-27T19:21:22.871Z,45.27
2019-06-27T19:24:01.949Z,46.37
2019-06-27T19:26:31.933Z,47.11
2019-06-27T19:29:02.552Z,47.48
2019-06-27T19:31:32.389Z,47.28
2019-06-27T19:34:02.296Z,47.97
2019-06-27T19:36:32.812Z,48.18
2019-06-27T19:39:02.780Z,48.03
2019-06-27T19:41:32.663Z,47.93
2019-06-27T19:44:02.638Z,47.76
2019-06-27T19:46:32.594Z,47.63
2019-06-27T19:49:03.365Z,47.28
2019-06-27T19:51:33.227Z,47.67
2019-06-27T19:54:03.177Z,47.01
2019-06-27T19:56:33.778Z,46.54
2019-06-27T19:59:03.730Z,46.17
2019-06-27T20:01:33.629Z,45.84
2019-06-27T20:04:04.456Z,45.23
2019-06-27T20:06:34.399Z,45.15
2019-06-27T20:09:05.202Z,45.63
2019-06-27T20:11:35.759Z,45.36
2019-06-27T20:14:05.913Z,45.39
2019-06-27T20:16:36.043Z,44.83
2019-06-27T20:19:06.212Z,43.79
2019-06-27T20:21:37.084Z,43.93
2019-06-27T20:24:07.091Z,43.97
2019-06-27T20:26:36.968Z,44.02
2019-06-27T20:29:07.206Z,44.04
2019-06-27T20:31:37.068Z,43.99
2019-06-27T20:34:07.054Z,43.65
2019-06-27T20:36:37.502Z,45.68
2019-06-27T20:39:08.355Z,43.47
2019-06-27T20:41:38.289Z,43.10
2019-06-27T20:44:08.629Z,44.57
2019-06-27T20:46:38.509Z,44.23
2019-06-27T20:49:08.659Z,43.68
2019-06-27T20:51:38.540Z,43.83
2019-06-27T20:54:12.116Z,45.35
2019-06-27T20:56:40.847Z,47.03
2019-06-27T20:59:11.085Z,45.50
2019-06-27T21:01:41.092Z,44.98
2019-06-27T21:04:11.113Z,46.10
2019-06-27T21:06:41.590Z,45.96
2019-06-27T21:09:11.518Z,48.37
2019-06-27T21:11:41.422Z,47.27
2019-06-27T21:14:11.951Z,48.62
2019-06-27T21:16:41.881Z,46.93
2019-06-27T21:19:11.804Z,49.11
2019-06-27T21:21:41.696Z,49.49
2019-06-27T21:24:11.869Z,51.85
2019-06-27T21:26:42.421Z,49.41
2019-06-27T21:29:12.374Z,49.38
2019-06-27T21:31:42.298Z,50.77
2019-06-27T21:34:12.276Z,51.47
2019-06-27T21:36:42.461Z,52.93
2019-06-27T21:39:12.680Z,54.56
2019-06-27T21:41:42.651Z,54.09
2019-06-27T21:44:13.349Z,55.35
2019-06-27T21:46:43.233Z,55.07
2019-06-27T21:49:13.239Z,56.19
2019-06-27T21:51:43.116Z,56.06
2019-06-27T21:54:13.103Z,57.21
2019-06-27T21:56:42.992Z,56.35
2019-06-27T21:59:12.889Z,57.41
2019-06-27T22:01:42.896Z,58.54
2019-06-27T22:04:13.551Z,59.97
2019-06-27T22:06:43.772Z,60.93
2019-06-27T22:09:24.056Z,61.63
2019-06-27T22:11:45.821Z,61.63
2019-06-27T22:14:15.974Z,61.63
2019-06-27T22:16:45.937Z,62.39
2019-06-27T22:19:15.849Z,61.88
2019-06-27T22:21:45.818Z,61.65
2019-06-27T22:24:16.125Z,63.80
2019-06-27T22:26:46.339Z,60.45
2019-06-27T22:29:16.364Z,60.68
2019-06-27T22:31:46.293Z,62.27
2019-06-27T22:34:16.218Z,59.11
2019-06-27T22:36:46.136Z,62.21
2019-06-27T22:39:40.397Z,63.77
2019-06-27T22:42:23.094Z,61.05
2019-06-27T22:45:10.587Z,60.01
2019-06-27T22:47:58.080Z,61.07
2019-06-27T22:50:46.018Z,61.99
2019-06-27T22:53:20.942Z,62.41
2019-06-27T22:55:51.245Z,63.54
2019-06-27T22:58:21.415Z,64.82
2019-06-27T23:00:51.439Z,66.03
2019-06-27T23:03:21.401Z,66.52
2019-06-27T23:05:51.357Z,66.37
2019-06-27T23:08:21.687Z,66.89
2019-06-27T23:10:51.626Z,67.26
2019-06-27T23:13:21.817Z,68.57
2019-06-27T23:15:51.698Z,69.41
2019-06-27T23:18:21.646Z,67.46
2019-06-27T23:20:51.543Z,69.52
2019-06-27T23:23:21.712Z,69.75
2019-06-27T23:25:51.675Z,70.04
2019-06-27T23:28:22.395Z,70.89
2019-06-27T23:30:52.321Z,71.43
2019-06-27T23:33:22.617Z,71.64
2019-06-27T23:35:52.529Z,71.68
2019-06-27T23:38:22.603Z,72.59
2019-06-27T23:40:52.712Z,72.69
2019-06-27T23:43:22.640Z,72.32
2019-06-27T23:45:53.477Z,73.55
2019-06-27T23:48:23.395Z,74.63
2019-06-27T23:50:53.371Z,75.74
2019-06-27T23:53:23.245Z,76.20
2019-06-27T23:55:53.148Z,76.03
2019-06-27T23:58:23.025Z,77.15
